createdAt,value
2019-05-18T00:00:39.624Z,89.60
2019-05-18T00:03:08.277Z,89.60
2019-05-18T00:05:37.022Z,89.60
2019-05-18T00:08:05.707Z,89.10
2019-05-18T00:10:34.373Z,90.00
2019-05-18T00:13:03.065Z,89.70
2019-05-18T00:15:31.772Z,89.70
2019-05-18T00:18:00.458Z,89.90
2019-05-18T00:20:29.160Z,89.80
2019-05-18T00:22:57.854Z,89.80
2019-05-18T00:25:26.611Z,90.40
2019-05-18T00:27:55.323Z,90.30
2019-05-18T00:30:24.005Z,90.30
2019-05-18T00:32:52.682Z,90.30
2019-05-18T00:35:21.348Z,90.30
2019-05-18T00:37:50.033Z,90.10
2019-05-18T00:40:20.084Z,90.30
2019-05-18T00:42:48.773Z,90.30
2019-05-18T00:45:17.490Z,90.20
2019-05-18T00:47:47.278Z,90.50
2019-05-18T00:50:15.933Z,90.40
2019-05-18T00:52:44.607Z,90.40
2019-05-18T00:55:13.297Z,90.40
2019-05-18T00:57:41.959Z,90.50
2019-05-18T01:00:11.731Z,90.50
2019-05-18T01:02:40.444Z,90.60
2019-05-18T01:05:09.123Z,90.80
2019-05-18T01:07:37.716Z,91.00
2019-05-18T01:10:09.133Z,91.10
2019-05-18T01:12:37.818Z,91.10
2019-05-18T01:15:06.935Z,90.80
2019-05-18T01:17:35.669Z,90.50
2019-05-18T01:20:04.938Z,90.60
2019-05-18T01:22:33.654Z,90.40
2019-05-18T01:25:02.327Z,90.20
2019-05-18T01:27:30.993Z,90.50
2019-05-18T01:29:59.685Z,90.70
2019-05-18T01:32:28.799Z,90.90
2019-05-18T01:34:57.461Z,91.10
2019-05-18T01:37:26.142Z,91.10
2019-05-18T01:39:54.862Z,91.00
2019-05-18T01:42:23.533Z,91.20
2019-05-18T01:44:52.191Z,91.20
2019-05-18T01:47:20.901Z,91.40
2019-05-18T01:49:49.618Z,91.40
2019-05-18T01:52:18.271Z,91.50
2019-05-18T01:54:47.006Z,91.50
2019-05-18T01:57:15.686Z,91.30
2019-05-18T01:59:44.361Z,91.50
2019-05-18T02:02:13.046Z,91.60
2019-05-18T02:04:41.704Z,91.70
2019-05-18T02:07:10.390Z,91.60
2019-05-18T02:09:39.071Z,91.90
2019-05-18T02:12:07.833Z,92.00
2019-05-18T02:14:36.501Z,92.20
2019-05-18T02:17:05.170Z,92.00
2019-05-18T02:19:33.906Z,92.50
2019-05-18T02:22:02.564Z,92.60
2019-05-18T02:24:31.225Z,92.80
2019-05-18T02:27:01.117Z,93.20
2019-05-18T02:29:29.769Z,93.00
2019-05-18T02:31:58.475Z,92.80
2019-05-18T02:34:27.197Z,92.60
2019-05-18T02:36:55.889Z,92.80
2019-05-18T02:39:26.125Z,92.80
2019-05-18T02:41:54.781Z,92.70
2019-05-18T02:44:23.453Z,92.50
2019-05-18T02:46:52.189Z,92.20
2019-05-18T02:49:20.920Z,92.60
2019-05-18T02:51:49.579Z,92.80
2019-05-18T02:54:18.297Z,93.10
2019-05-18T02:56:47.005Z,93.00
2019-05-18T02:59:15.664Z,93.20
2019-05-18T03:01:44.365Z,93.40
2019-05-18T03:04:13.033Z,93.60
2019-05-18T03:06:41.730Z,93.70
2019-05-18T03:09:10.428Z,93.80
2019-05-18T03:11:39.104Z,93.60
2019-05-18T03:14:07.763Z,93.80
2019-05-18T03:16:36.482Z,93.30
2019-05-18T03:19:08.641Z,93.40
2019-05-18T03:21:35.481Z,93.30
2019-05-18T03:24:05.692Z,93.10
2019-05-18T03:26:34.369Z,92.90
2019-05-18T03:29:03.065Z,92.80
2019-05-18T03:31:31.791Z,92.50
2019-05-18T03:34:00.443Z,92.40
2019-05-18T03:36:29.114Z,92.50
2019-05-18T03:38:57.833Z,93.00
2019-05-18T03:41:26.495Z,93.40
2019-05-18T03:43:55.166Z,93.50
2019-05-18T03:46:24.231Z,93.70
2019-05-18T03:48:52.945Z,93.90
2019-05-18T03:51:24.124Z,93.90
2019-05-18T03:53:52.800Z,93.70
2019-05-18T03:56:21.491Z,93.20
2019-05-18T03:58:50.210Z,93.70
2019-05-18T04:01:18.858Z,93.80
2019-05-18T04:03:47.506Z,94.00
2019-05-18T04:06:16.231Z,94.10
2019-05-18T04:08:44.925Z,93.90
2019-05-18T04:11:13.587Z,94.00
2019-05-18T04:13:43.786Z,93.90
2019-05-18T04:16:12.463Z,94.10
2019-05-18T04:18:41.159Z,94.10
2019-05-18T04:21:09.754Z,93.90
2019-05-18T04:23:38.433Z,93.70
2019-05-18T04:26:07.157Z,93.70
2019-05-18T04:28:35.887Z,93.70
2019-05-18T04:31:04.551Z,93.50
2019-05-18T04:33:33.304Z,93.70
2019-05-18T04:36:01.955Z,93.80
2019-05-18T04:38:30.615Z,93.80
2019-05-18T04:40:59.304Z,94.00
2019-05-18T04:43:27.980Z,94.10
2019-05-18T04:45:56.654Z,94.20
2019-05-18T04:48:25.295Z,93.90
2019-05-18T04:50:53.950Z,94.00
2019-05-18T04:53:24.160Z,93.80
2019-05-18T04:55:52.820Z,93.80
2019-05-18T04:58:21.479Z,93.80
2019-05-18T05:00:50.184Z,93.60
2019-05-18T05:03:18.857Z,93.50
2019-05-18T05:05:47.485Z,93.80
2019-05-18T05:08:16.715Z,93.30
2019-05-18T05:10:47.207Z,93.20
2019-05-18T05:13:15.856Z,93.20
2019-05-18T05:15:44.556Z,92.70
2019-05-18T05:18:13.220Z,92.70
2019-05-18T05:20:41.918Z,92.70
2019-05-18T05:23:10.601Z,92.50
2019-05-18T05:25:39.276Z,92.80
2019-05-18T05:28:08.021Z,92.90
2019-05-18T05:30:38.171Z,93.30
2019-05-18T05:33:06.919Z,93.30
2019-05-18T05:35:37.750Z,92.90
2019-05-18T05:38:06.031Z,93.30
2019-05-18T05:40:34.711Z,93.30
2019-05-18T05:43:03.366Z,93.60
2019-05-18T05:45:32.075Z,93.60
2019-05-18T05:48:00.720Z,92.90
2019-05-18T05:50:36.246Z,92.80
2019-05-18T05:52:59.755Z,93.00
2019-05-18T05:55:28.400Z,93.30
2019-05-18T05:57:59.252Z,93.20
2019-05-18T06:00:28.002Z,93.30
2019-05-18T06:02:56.739Z,93.20
2019-05-18T06:05:26.981Z,93.10
2019-05-18T06:07:55.642Z,92.60
2019-05-18T06:10:25.372Z,93.40
2019-05-18T06:12:55.885Z,93.20
2019-05-18T06:15:24.571Z,93.30
2019-05-18T06:17:53.544Z,93.50
2019-05-18T06:20:22.238Z,93.00
2019-05-18T06:22:51.362Z,93.70
2019-05-18T06:25:20.029Z,93.00
2019-05-18T06:27:48.864Z,92.40
2019-05-18T06:30:17.703Z,92.50
2019-05-18T06:32:46.581Z,92.80
2019-05-18T06:35:15.277Z,92.40
2019-05-18T06:37:43.922Z,91.70
2019-05-18T06:40:12.590Z,91.20
2019-05-18T06:42:41.300Z,91.20
2019-05-18T06:45:09.970Z,91.20
2019-05-18T06:47:40.197Z,91.40
2019-05-18T06:50:11.720Z,91.20
2019-05-18T06:52:41.232Z,91.10
2019-05-18T06:55:09.139Z,91.10
2019-05-18T06:57:37.855Z,91.10
2019-05-18T07:00:07.840Z,90.70
2019-05-18T07:02:36.511Z,90.90
2019-05-18T07:05:06.446Z,90.80
2019-05-18T07:07:35.129Z,90.50
2019-05-18T07:10:05.176Z,90.80
2019-05-18T07:12:33.888Z,90.70
2019-05-18T07:15:02.529Z,90.50
2019-05-18T07:17:34.579Z,90.50
2019-05-18T07:20:02.814Z,90.50
2019-05-18T07:22:31.528Z,90.30
2019-05-18T07:25:02.240Z,90.50
2019-05-18T07:27:30.164Z,90.50
2019-05-18T07:29:58.847Z,90.40
2019-05-18T07:32:27.514Z,90.60
2019-05-18T07:34:56.240Z,91.10
2019-05-18T07:37:25.038Z,89.10
2019-05-18T07:39:54.914Z,90.10
2019-05-18T07:42:23.569Z,89.10
2019-05-18T07:44:52.273Z,88.80
2019-05-18T07:47:21.003Z,86.50
2019-05-18T07:49:49.834Z,86.40
2019-05-18T07:52:18.492Z,86.30
2019-05-18T07:54:47.250Z,85.60
2019-05-18T07:57:15.916Z,84.80
2019-05-18T07:59:44.586Z,84.20
2019-05-18T08:02:13.272Z,84.30
2019-05-18T08:04:41.972Z,83.70
2019-05-18T08:07:10.622Z,83.50
2019-05-18T08:09:39.336Z,81.50
2019-05-18T08:12:08.003Z,81.40
2019-05-18T08:14:36.705Z,80.60
2019-05-18T08:17:05.396Z,81.60
2019-05-18T08:19:34.066Z,80.50
2019-05-18T08:24:33.215Z,77.40
2019-05-18T08:27:02.474Z,78.20
2019-05-18T08:29:31.105Z,77.10
2019-05-18T08:32:01.014Z,77.60
2019-05-18T08:34:29.707Z,78.20
2019-05-18T08:36:58.380Z,77.70
2019-05-18T08:39:27.108Z,75.80
2019-05-18T08:41:55.766Z,75.00
2019-05-18T08:44:24.426Z,75.70
2019-05-18T08:46:53.123Z,75.70
2019-05-18T08:49:21.769Z,76.00
2019-05-18T08:51:50.493Z,75.40
2019-05-18T08:54:20.317Z,75.20
2019-05-18T08:56:48.978Z,75.50
2019-05-18T08:59:19.260Z,74.40
2019-05-18T09:01:47.984Z,75.30
2019-05-18T09:04:16.560Z,76.20
2019-05-18T09:06:45.225Z,76.30
2019-05-18T09:09:13.953Z,76.90
2019-05-18T09:11:42.574Z,76.60
2019-05-18T09:14:11.274Z,77.60
2019-05-18T09:16:41.304Z,77.70
2019-05-18T09:19:09.993Z,77.70
2019-05-18T09:21:38.561Z,76.90
2019-05-18T09:24:07.160Z,77.80
2019-05-18T09:26:35.821Z,78.50
2019-05-18T09:29:06.049Z,78.00
2019-05-18T09:31:34.698Z,78.10
2019-05-18T09:34:03.298Z,78.40
2019-05-18T09:36:31.934Z,77.80
2019-05-18T09:39:00.604Z,78.80
2019-05-18T09:41:29.247Z,79.60
2019-05-18T09:43:57.916Z,80.10
2019-05-18T09:46:26.529Z,79.40
2019-05-18T09:48:55.238Z,79.30
2019-05-18T09:51:23.906Z,81.20
2019-05-18T09:53:52.586Z,80.00
2019-05-18T09:56:21.298Z,80.20
2019-05-18T09:58:49.887Z,79.00
2019-05-18T10:01:18.693Z,78.90
2019-05-18T10:03:47.345Z,78.50
2019-05-18T10:06:16.317Z,79.00
2019-05-18T10:08:45.652Z,79.00
2019-05-18T10:11:14.884Z,80.10
2019-05-18T10:13:44.707Z,79.80
2019-05-18T10:16:13.388Z,79.90
2019-05-18T10:18:42.386Z,80.40
2019-05-18T10:21:11.712Z,80.80
2019-05-18T10:23:40.599Z,80.50
2019-05-18T10:26:09.224Z,79.90
2019-05-18T10:28:37.869Z,79.70
2019-05-18T10:31:06.569Z,79.00
2019-05-18T10:33:35.391Z,79.30
2019-05-18T10:36:04.052Z,79.50
2019-05-18T10:38:32.675Z,79.80
2019-05-18T10:41:01.330Z,79.90
2019-05-18T10:43:29.971Z,79.40
2019-05-18T10:45:58.683Z,78.80
2019-05-18T10:48:27.360Z,78.90
2019-05-18T10:50:56.195Z,78.60
2019-05-18T10:53:28.862Z,80.00
2019-05-18T10:55:55.569Z,80.70
2019-05-18T10:58:24.240Z,79.20
2019-05-18T11:00:53.581Z,79.80
2019-05-18T11:03:22.258Z,81.10
2019-05-18T11:05:50.931Z,79.90
2019-05-18T11:08:19.662Z,80.90
2019-05-18T11:10:48.328Z,81.70
2019-05-18T11:13:17.451Z,80.20
2019-05-18T11:15:46.211Z,80.70
2019-05-18T11:18:16.302Z,80.50
2019-05-18T11:20:44.968Z,82.70
2019-05-18T11:23:13.651Z,82.00
2019-05-18T11:25:42.554Z,82.20
2019-05-18T11:28:11.240Z,83.20
2019-05-18T11:30:39.902Z,83.40
2019-05-18T11:33:11.432Z,83.60
2019-05-18T11:35:40.203Z,81.70
2019-05-18T11:38:08.917Z,80.00
2019-05-18T11:40:38.050Z,79.90
2019-05-18T11:43:06.793Z,79.20
2019-05-18T11:45:35.524Z,79.40
2019-05-18T11:48:04.585Z,79.90
2019-05-18T11:50:33.533Z,80.30
2019-05-18T11:53:02.271Z,79.80
2019-05-18T11:55:31.009Z,79.20
2019-05-18T11:58:00.007Z,79.10
2019-05-18T12:00:28.738Z,80.10
2019-05-18T12:02:57.329Z,79.80
2019-05-18T12:05:26.012Z,79.20
2019-05-18T12:07:54.713Z,78.00
2019-05-18T12:10:25.326Z,77.20
2019-05-18T12:12:53.245Z,77.30
2019-05-18T12:15:22.100Z,77.40
2019-05-18T12:17:51.509Z,75.90
2019-05-18T12:20:20.344Z,73.90
2019-05-18T12:22:49.069Z,72.60
2019-05-18T12:25:18.148Z,72.20
2019-05-18T12:27:46.816Z,71.70
2019-05-18T12:30:15.549Z,72.90
2019-05-18T12:32:45.364Z,72.50
2019-05-18T12:35:14.048Z,72.40
2019-05-18T12:37:45.008Z,72.70
2019-05-18T12:40:15.735Z,72.90
2019-05-18T12:42:43.848Z,73.70
2019-05-18T12:45:12.640Z,72.50
2019-05-18T12:47:41.306Z,71.10
2019-05-18T12:50:10.120Z,67.70
2019-05-18T12:52:38.816Z,66.80
2019-05-18T12:55:07.500Z,66.10
2019-05-18T12:57:36.630Z,64.70
2019-05-18T13:00:07.403Z,64.90
2019-05-18T13:02:36.787Z,63.60
2019-05-18T13:05:06.954Z,63.70
2019-05-18T13:07:35.551Z,64.20
2019-05-18T13:10:06.628Z,64.20
2019-05-18T13:12:36.198Z,64.80
2019-05-18T13:15:07.998Z,66.90
2019-05-18T13:17:36.730Z,63.20
2019-05-18T13:20:09.376Z,64.60
2019-05-18T13:22:38.053Z,64.10
2019-05-18T13:25:06.849Z,64.30
2019-05-18T13:27:39.579Z,64.30
2019-05-18T13:30:07.369Z,61.00
2019-05-18T13:32:37.409Z,61.60
2019-05-18T13:35:06.960Z,63.40
2019-05-18T13:37:35.624Z,62.90
2019-05-18T13:40:08.393Z,59.40
2019-05-18T13:42:37.072Z,61.50
2019-05-18T13:45:07.152Z,61.30
2019-05-18T13:47:35.973Z,58.90
2019-05-18T13:50:05.462Z,59.50
2019-05-18T13:52:34.156Z,59.90
2019-05-18T13:55:04.972Z,60.80
2019-05-18T13:57:33.142Z,61.70
2019-05-18T14:00:01.747Z,62.60
2019-05-18T14:02:30.410Z,60.80
2019-05-18T14:04:59.121Z,60.00
2019-05-18T14:07:27.798Z,61.50
2019-05-18T14:09:56.399Z,63.30
2019-05-18T14:12:25.117Z,62.50
2019-05-18T14:14:53.779Z,60.70
2019-05-18T14:17:22.395Z,60.00
2019-05-18T14:19:51.061Z,59.40
2019-05-18T14:22:19.768Z,58.70
2019-05-18T14:24:48.438Z,58.00
2019-05-18T14:27:17.101Z,57.30
2019-05-18T14:29:45.819Z,58.00
2019-05-18T14:32:14.482Z,57.20
2019-05-18T14:34:43.196Z,57.30
2019-05-18T14:37:11.835Z,58.70
2019-05-18T14:39:40.511Z,57.70
2019-05-18T14:42:09.262Z,59.10
2019-05-18T14:44:37.924Z,59.20
2019-05-18T14:47:06.683Z,60.50
2019-05-18T14:49:35.400Z,61.30
2019-05-18T14:52:04.110Z,61.70
2019-05-18T14:54:32.864Z,62.60
2019-05-18T14:57:03.347Z,61.50
2019-05-18T14:59:32.009Z,61.50
2019-05-18T15:02:00.659Z,61.30
2019-05-18T15:04:29.417Z,61.30
2019-05-18T15:06:57.992Z,61.90
2019-05-18T15:09:26.717Z,61.90
2019-05-18T15:11:55.389Z,63.90
2019-05-18T15:14:24.062Z,63.30
2019-05-18T15:16:53.111Z,64.90
2019-05-18T15:19:21.952Z,63.90
2019-05-18T15:21:50.630Z,64.80
2019-05-18T15:24:19.339Z,64.90
2019-05-18T15:26:48.067Z,64.30
2019-05-18T15:29:16.781Z,63.90
2019-05-18T15:31:45.488Z,64.00
2019-05-18T15:34:14.208Z,64.50
2019-05-18T15:36:42.877Z,65.20
2019-05-18T15:39:11.597Z,65.50
2019-05-18T15:41:40.255Z,65.30
2019-05-18T15:44:08.923Z,64.50
2019-05-18T15:46:39.395Z,64.20
2019-05-18T15:49:08.174Z,64.50
2019-05-18T15:51:36.818Z,64.80
2019-05-18T15:54:07.425Z,64.80
2019-05-18T15:56:35.333Z,65.10
2019-05-18T15:59:04.063Z,65.60
2019-05-18T16:01:32.774Z,65.70
2019-05-18T16:04:01.492Z,64.50
2019-05-18T16:06:30.148Z,62.80
2019-05-18T16:08:58.882Z,64.70
2019-05-18T16:11:27.583Z,63.60
2019-05-18T16:13:56.249Z,64.00
2019-05-18T16:16:26.361Z,62.40
2019-05-18T16:18:55.011Z,62.20
2019-05-18T16:21:23.670Z,63.20
2019-05-18T16:23:52.374Z,63.00
2019-05-18T16:26:22.042Z,63.70
2019-05-18T16:28:50.868Z,62.80
2019-05-18T16:31:19.585Z,63.60
2019-05-18T16:33:48.166Z,64.60
2019-05-18T16:36:16.896Z,64.50
2019-05-18T16:38:45.610Z,65.90
2019-05-18T16:41:14.302Z,64.60
2019-05-18T16:43:42.994Z,65.00
2019-05-18T16:46:11.655Z,64.70
2019-05-18T16:48:40.339Z,65.00
2019-05-18T16:51:09.072Z,65.60
2019-05-18T16:53:37.755Z,65.20
2019-05-18T16:56:06.410Z,65.70
2019-05-18T16:58:35.108Z,66.40
2019-05-18T17:01:03.786Z,66.50
2019-05-18T17:03:32.323Z,66.90
2019-05-18T17:06:01.902Z,66.80
2019-05-18T17:08:30.593Z,67.10
2019-05-18T17:10:59.236Z,70.60
2019-05-18T17:13:27.942Z,69.90
2019-05-18T17:15:56.659Z,70.30
2019-05-18T17:18:25.323Z,70.50
2019-05-18T17:20:55.358Z,71.10
2019-05-18T17:23:24.076Z,71.10
2019-05-18T17:25:52.837Z,71.70
2019-05-18T17:28:21.522Z,71.70
2019-05-18T17:30:50.191Z,72.70
2019-05-18T17:33:18.885Z,73.50
2019-05-18T17:35:59.946Z,73.90
2019-05-18T17:38:17.914Z,74.20
2019-05-18T17:40:46.585Z,74.00
2019-05-18T17:43:15.260Z,73.70
2019-05-18T17:45:44.009Z,74.20
2019-05-18T17:48:12.672Z,74.20
2019-05-18T17:50:41.345Z,74.30
2019-05-18T17:53:10.071Z,74.60
2019-05-18T17:55:38.767Z,74.30
2019-05-18T17:58:07.511Z,71.50
2019-05-18T18:00:36.224Z,72.40
2019-05-18T18:03:04.917Z,71.70
2019-05-18T18:05:33.585Z,72.30
2019-05-18T18:08:03.161Z,72.20
2019-05-18T18:10:31.839Z,73.00
2019-05-18T18:13:00.482Z,71.80
2019-05-18T18:15:29.244Z,71.30
2019-05-18T18:17:57.906Z,72.50
2019-05-18T18:20:26.582Z,72.80
2019-05-18T18:22:55.288Z,71.50
2019-05-18T18:25:23.960Z,71.60
2019-05-18T18:27:52.638Z,72.30
2019-05-18T18:30:22.435Z,72.60
2019-05-18T18:32:51.103Z,72.00
2019-05-18T18:35:19.810Z,73.20
2019-05-18T18:37:50.029Z,74.40
2019-05-18T18:40:18.695Z,76.40
2019-05-18T18:42:47.399Z,78.60
2019-05-18T18:45:16.123Z,78.60
2019-05-18T18:47:44.778Z,79.60
2019-05-18T18:50:13.498Z,81.00
2019-05-18T18:52:42.191Z,83.20
2019-05-18T18:55:12.467Z,84.50
2019-05-18T18:57:42.245Z,84.70
2019-05-18T19:00:11.285Z,86.10
2019-05-18T19:02:39.986Z,87.00
2019-05-18T19:05:10.496Z,87.70
2019-05-18T19:07:39.195Z,88.40
2019-05-18T19:10:07.857Z,88.50
2019-05-18T19:12:36.570Z,88.80
2019-05-18T19:15:08.389Z,89.30
2019-05-18T19:17:37.067Z,89.90
2019-05-18T19:20:06.078Z,90.00
2019-05-18T19:22:34.751Z,90.00
2019-05-18T19:25:03.456Z,89.40
2019-05-18T19:27:32.197Z,89.40
2019-05-18T19:30:00.905Z,89.50
2019-05-18T19:32:29.561Z,89.40
2019-05-18T19:34:58.291Z,88.90
2019-05-18T19:37:26.942Z,88.10
2019-05-18T19:39:56.590Z,88.20
2019-05-18T19:42:25.263Z,88.60
2019-05-18T19:44:53.937Z,89.00
2019-05-18T19:47:22.650Z,89.60
2019-05-18T19:49:51.319Z,88.70
2019-05-18T19:52:19.986Z,88.40
2019-05-18T19:54:48.686Z,88.10
2019-05-18T19:57:17.371Z,87.70
2019-05-18T19:59:46.030Z,87.60
2019-05-18T20:02:18.531Z,87.50
2019-05-18T20:05:05.783Z,87.50
2019-05-18T20:07:16.922Z,87.20
2019-05-18T20:09:45.625Z,86.80
2019-05-18T20:12:14.287Z,86.20
2019-05-18T20:14:43.000Z,85.70
2019-05-18T20:17:11.740Z,85.40
2019-05-18T20:19:40.388Z,85.90
2019-05-18T20:22:09.138Z,86.30
2019-05-18T20:24:37.815Z,86.80
2019-05-18T20:27:06.505Z,86.50
2019-05-18T20:29:35.240Z,86.10
2019-05-18T20:32:03.925Z,85.90
2019-05-18T20:34:32.634Z,86.60
2019-05-18T20:37:01.323Z,86.30
2019-05-18T20:39:29.996Z,86.80
2019-05-18T20:41:58.675Z,87.40
2019-05-18T20:44:27.342Z,87.40
2019-05-18T20:46:56.005Z,87.10
2019-05-18T20:49:24.710Z,87.30
2019-05-18T20:51:53.400Z,88.20
2019-05-18T20:54:22.061Z,88.40
2019-05-18T20:56:50.777Z,87.90
2019-05-18T20:59:19.352Z,88.30
2019-05-18T21:01:49.577Z,87.80
2019-05-18T21:04:19.432Z,88.50
2019-05-18T21:06:48.044Z,87.90
2019-05-18T21:09:16.798Z,88.60
2019-05-18T21:11:47.508Z,88.10
2019-05-18T21:14:15.461Z,89.00
2019-05-18T21:16:44.148Z,88.20
2019-05-18T21:19:12.841Z,87.90
2019-05-18T21:21:41.521Z,88.10
2019-05-18T21:24:10.231Z,88.20
2019-05-18T21:26:40.546Z,88.00
2019-05-18T21:29:09.261Z,88.10
2019-05-18T21:31:37.960Z,87.90
2019-05-18T21:34:06.643Z,88.50
2019-05-18T21:36:35.334Z,89.20
2019-05-18T21:39:05.099Z,89.30
2019-05-18T21:41:33.772Z,89.40
2019-05-18T21:44:02.469Z,89.20
2019-05-18T21:46:31.081Z,89.20
2019-05-18T21:48:59.761Z,89.70
2019-05-18T21:51:28.493Z,89.70
2019-05-18T21:53:57.171Z,89.70
2019-05-18T21:56:25.831Z,89.10
2019-05-18T21:58:54.587Z,89.50
2019-05-18T22:01:23.249Z,89.40
2019-05-18T22:03:53.312Z,89.10
2019-05-18T22:06:22.011Z,89.30
2019-05-18T22:08:50.698Z,88.90
2019-05-18T22:11:19.299Z,88.90
2019-05-18T22:13:47.992Z,89.20
2019-05-18T22:16:16.676Z,89.30
2019-05-18T22:18:45.361Z,89.60
2019-05-18T22:21:14.035Z,90.10
2019-05-18T22:23:42.705Z,90.00
2019-05-18T22:26:11.385Z,89.90
2019-05-18T22:28:40.086Z,90.10
2019-05-18T22:31:08.773Z,90.40
2019-05-18T22:33:37.437Z,90.70
2019-05-18T22:36:06.188Z,90.60
2019-05-18T22:38:34.887Z,90.40
2019-05-18T22:41:03.831Z,90.60
2019-05-18T22:43:32.660Z,90.60
2019-05-18T22:46:01.565Z,90.60
2019-05-18T22:48:40.925Z,90.30
2019-05-18T22:51:00.594Z,90.20
2019-05-18T22:53:29.253Z,90.30
2019-05-18T22:55:58.185Z,90.30
2019-05-18T22:58:27.098Z,90.10
2019-05-18T23:00:55.807Z,89.80
2019-05-18T23:03:26.046Z,90.30
2019-05-18T23:05:54.768Z,90.50
2019-05-18T23:08:23.443Z,90.60
2019-05-18T23:10:52.224Z,90.60
2019-05-18T23:13:20.860Z,90.40
2019-05-18T23:15:49.550Z,90.20
2019-05-18T23:18:18.292Z,90.30
2019-05-18T23:20:46.975Z,90.00
2019-05-18T23:23:15.666Z,90.00
2019-05-18T23:25:45.564Z,90.10
2019-05-18T23:28:15.650Z,90.00
2019-05-18T23:30:44.325Z,90.60
2019-05-18T23:33:13.031Z,90.70
2019-05-18T23:35:41.702Z,90.60
2019-05-18T23:38:10.399Z,90.70
2019-05-18T23:40:39.075Z,90.70
2019-05-18T23:43:07.799Z,91.00
2019-05-18T23:45:36.480Z,91.00
2019-05-18T23:48:05.117Z,90.90
2019-05-18T23:50:33.788Z,91.60
2019-05-18T23:53:02.488Z,92.10
2019-05-18T23:55:31.191Z,92.30
2019-05-18T23:58:04.915Z,92.50
